createdAt,value
2022-09-17T00:02:07.318Z,99014.62
2022-09-17T00:05:12.005Z,99013.28
2022-09-17T00:08:15.201Z,99015.66
2022-09-17T00:11:21.222Z,99020.59
2022-09-17T00:14:24.172Z,99014.00
2022-09-17T00:17:27.229Z,99009.09
2022-09-17T00:20:30.151Z,99000.06
2022-09-17T00:23:34.695Z,98996.06
2022-09-17T00:26:37.523Z,98989.38
2022-09-17T00:29:40.402Z,98980.75
2022-09-17T00:32:43.119Z,98981.56
2022-09-17T00:35:46.269Z,98980.84
2022-09-17T00:38:52.395Z,98984.53
2022-09-17T00:41:56.193Z,98988.09
2022-09-17T00:45:01.244Z,98979.78
2022-09-17T00:48:04.638Z,98980.37
2022-09-17T00:51:07.238Z,98975.84
2022-09-17T00:54:12.080Z,98979.84
2022-09-17T00:57:16.566Z,98975.09
2022-09-17T01:00:22.197Z,98982.22
2022-09-17T01:03:26.316Z,98975.03
2022-09-17T01:06:48.153Z,98989.66
2022-09-17T01:09:56.349Z,98977.13
2022-09-17T01:13:09.987Z,98974.56
2022-09-17T01:16:12.848Z,98964.84
2022-09-17T01:19:33.031Z,98968.78
2022-09-17T01:22:59.542Z,98970.66
2022-09-17T01:26:22.527Z,98975.81
2022-09-17T01:29:28.195Z,98970.22
2022-09-17T01:32:52.362Z,98971.94
2022-09-17T01:36:14.410Z,98978.59
2022-09-17T01:39:17.339Z,98989.81
2022-09-17T01:42:46.066Z,98995.78
2022-09-17T01:45:54.509Z,98984.44
2022-09-17T01:48:59.293Z,98997.06
2022-09-17T01:52:04.284Z,98993.31
2022-09-17T01:55:08.818Z,98999.41
2022-09-17T01:58:15.300Z,98991.69
2022-09-17T02:01:18.203Z,98983.56
2022-09-17T02:04:30.405Z,98982.94
2022-09-17T02:07:34.553Z,98990.72
2022-09-17T02:10:41.664Z,98984.91
2022-09-17T02:13:54.815Z,98979.41
2022-09-17T02:17:00.940Z,98973.38
2022-09-17T02:20:04.496Z,98969.12
2022-09-17T02:23:11.085Z,98964.22
2022-09-17T02:26:16.026Z,98968.47
2022-09-17T02:29:33.240Z,98947.91
2022-09-17T02:32:38.144Z,98936.38
2022-09-17T02:35:40.707Z,98934.63
2022-09-17T02:38:44.306Z,98947.25
2022-09-17T02:41:52.323Z,98933.78
2022-09-17T02:44:55.762Z,98943.41
2022-09-17T02:48:04.910Z,98932.91
2022-09-17T02:51:14.907Z,98931.38
2022-09-17T02:54:26.382Z,98923.25
2022-09-17T02:57:30.790Z,98922.56
2022-09-17T03:00:33.408Z,98924.84
2022-09-17T03:03:40.271Z,98927.97
2022-09-17T03:06:46.917Z,98918.31
2022-09-17T03:09:50.076Z,98920.03
2022-09-17T03:12:52.909Z,98911.75
2022-09-17T03:15:57.747Z,98903.09
2022-09-17T03:19:00.464Z,98908.97
2022-09-17T03:22:03.953Z,98906.78
2022-09-17T03:25:06.671Z,98913.97
2022-09-17T03:28:09.842Z,98917.00
2022-09-17T03:31:12.516Z,98914.78
2022-09-17T03:34:15.410Z,98904.22
2022-09-17T03:37:18.353Z,98894.72
2022-09-17T03:40:22.308Z,98884.47
2022-09-17T03:43:25.441Z,98873.47
2022-09-17T03:46:28.818Z,98870.31
2022-09-17T03:49:31.426Z,98871.56
2022-09-17T03:52:34.517Z,98871.38
2022-09-17T03:55:40.336Z,98870.31
2022-09-17T03:58:43.189Z,98878.06
2022-09-17T04:01:51.140Z,98890.28
2022-09-17T04:04:54.641Z,98881.13
2022-09-17T04:07:57.314Z,98896.19
2022-09-17T04:11:01.084Z,98890.31
2022-09-17T04:14:04.448Z,98896.84
2022-09-17T04:17:07.330Z,98884.06
2022-09-17T04:20:10.150Z,98876.22
2022-09-17T04:23:14.430Z,98874.00
2022-09-17T04:26:17.220Z,98874.59
2022-09-17T04:29:23.331Z,98867.94
2022-09-17T04:36:26.598Z,98848.56
2022-09-17T04:43:36.732Z,98842.37
2022-09-17T04:46:39.979Z,98825.31
2022-09-17T04:49:48.637Z,98838.12
2022-09-17T05:19:21.829Z,98892.09
2022-09-17T05:22:25.165Z,98892.28
2022-09-17T05:25:29.786Z,98901.72
2022-09-17T05:28:34.703Z,98898.56
2022-09-17T05:31:37.289Z,98901.78
2022-09-17T05:34:40.767Z,98901.38
2022-09-17T05:37:43.308Z,98901.41
2022-09-17T05:40:46.401Z,98905.22
2022-09-17T05:43:51.508Z,98888.72
2022-09-17T05:46:54.542Z,98891.44
2022-09-17T05:49:57.242Z,98901.69
2022-09-17T05:53:07.000Z,98894.50
2022-09-17T05:56:09.644Z,98887.31
2022-09-17T05:59:12.873Z,98900.75
2022-09-17T06:02:15.958Z,98895.22
2022-09-17T06:05:20.367Z,98890.72
2022-09-17T06:08:25.773Z,98881.31
2022-09-17T06:11:28.892Z,98880.59
2022-09-17T06:14:32.549Z,98888.69
2022-09-17T06:17:35.792Z,98883.09
2022-09-17T06:20:38.473Z,98894.47
2022-09-17T06:23:43.630Z,98902.47
2022-09-17T06:26:46.174Z,98914.94
2022-09-17T06:29:49.061Z,98906.78
2022-09-17T06:32:51.873Z,98908.53
2022-09-17T06:36:00.361Z,98925.47
2022-09-17T06:39:04.445Z,98915.28
2022-09-17T06:42:07.519Z,98927.47
2022-09-17T06:45:14.500Z,98948.84
2022-09-17T06:48:19.626Z,98955.75
2022-09-17T06:51:24.774Z,98971.59
2022-09-17T06:54:27.841Z,98973.00
2022-09-17T06:57:30.434Z,98963.84
2022-09-17T07:00:33.260Z,98953.38
2022-09-17T07:03:36.510Z,98947.66
2022-09-17T07:06:39.359Z,98942.59
2022-09-17T07:09:43.051Z,98932.25
2022-09-17T07:12:49.824Z,98941.94
2022-09-17T07:15:58.759Z,98949.94
2022-09-17T07:19:03.151Z,98944.88
2022-09-17T07:22:05.801Z,98939.03
2022-09-17T07:25:09.072Z,98937.19
2022-09-17T07:28:12.036Z,98926.31
2022-09-17T07:31:16.542Z,98921.91
2022-09-17T07:34:20.321Z,98912.81
2022-09-17T07:37:23.500Z,98906.62
2022-09-17T07:40:26.118Z,98900.53
2022-09-17T07:43:32.847Z,98933.66
2022-09-17T07:46:36.124Z,98938.84
2022-09-17T07:49:39.068Z,98936.50
2022-09-17T07:52:50.839Z,98958.53
2022-09-17T07:55:58.213Z,98967.38
2022-09-17T07:59:02.207Z,98953.97
2022-09-17T08:02:06.155Z,98963.13
2022-09-17T08:05:09.063Z,98972.41
2022-09-17T08:08:11.744Z,98977.16
2022-09-17T08:11:23.643Z,98983.72
2022-09-17T08:14:35.264Z,98988.44
2022-09-17T08:17:39.922Z,99000.41
2022-09-17T08:20:42.942Z,98990.41
2022-09-17T08:23:46.112Z,98997.75
2022-09-17T08:26:48.854Z,99003.41
2022-09-17T08:29:51.724Z,99004.72
2022-09-17T08:32:56.173Z,99007.69
2022-09-17T08:35:59.718Z,99005.09
2022-09-17T08:39:03.708Z,98999.19
2022-09-17T08:42:12.520Z,98996.75
2022-09-17T08:45:19.711Z,98983.62
2022-09-17T08:48:23.590Z,98971.44
2022-09-17T08:51:45.922Z,98961.47
2022-09-17T08:54:51.919Z,98959.81
2022-09-17T08:58:01.806Z,98954.94
2022-09-17T09:01:10.156Z,98946.94
2022-09-17T09:04:13.082Z,98935.16
2022-09-17T09:07:18.055Z,98947.13
2022-09-17T09:10:24.341Z,98951.31
2022-09-17T09:13:36.585Z,98959.28
2022-09-17T09:16:39.819Z,98958.13
2022-09-17T09:19:44.399Z,98975.75
2022-09-17T09:22:52.056Z,98967.75
2022-09-17T09:26:15.604Z,98979.63
2022-09-17T09:29:31.923Z,98988.78
2022-09-17T09:32:43.857Z,98973.19
2022-09-17T09:35:48.728Z,98976.75
2022-09-17T09:39:13.087Z,98975.47
2022-09-17T09:42:27.846Z,98977.53
2022-09-17T09:45:34.473Z,98975.56
2022-09-17T09:48:49.422Z,98981.97
2022-09-17T09:52:12.879Z,98988.31
2022-09-17T09:55:22.228Z,98989.31
2022-09-17T09:58:37.570Z,98993.25
2022-09-17T10:01:45.280Z,98987.28
2022-09-17T10:04:53.269Z,98991.75
2022-09-17T10:07:57.282Z,98994.87
2022-09-17T10:11:06.272Z,98995.25
2022-09-17T10:14:15.180Z,99001.28
2022-09-17T10:17:23.021Z,99000.28
2022-09-17T10:20:25.647Z,98990.91
2022-09-17T10:23:34.125Z,98981.69
2022-09-17T10:26:36.827Z,98980.22
2022-09-17T10:29:47.223Z,98983.62
2022-09-17T10:33:10.857Z,98980.28
2022-09-17T10:36:14.811Z,98961.72
2022-09-17T10:39:22.262Z,98950.50
2022-09-17T10:50:13.092Z,98979.03
2022-09-17T10:53:16.518Z,98973.53
2022-09-17T10:56:34.133Z,98954.16
2022-09-17T11:07:45.547Z,98921.50
2022-09-17T11:10:48.166Z,98918.34
2022-09-17T11:14:10.048Z,98921.59
2022-09-17T11:17:31.512Z,98913.25
2022-09-17T11:24:50.151Z,98926.84
2022-09-17T11:32:07.390Z,98919.66
2022-09-17T11:35:37.162Z,98913.13
2022-09-17T11:38:41.509Z,98911.09
2022-09-17T11:41:50.027Z,98917.66
2022-09-17T11:44:56.436Z,98923.31
2022-09-17T11:48:21.772Z,98922.56
2022-09-17T11:55:09.827Z,98917.88
2022-09-17T11:58:23.363Z,98889.03
2022-09-17T12:01:58.024Z,98884.03
2022-09-17T12:05:21.788Z,98871.50
2022-09-17T12:08:42.837Z,98860.41
2022-09-17T12:19:36.427Z,98861.47
2022-09-17T12:23:13.390Z,98842.97
2022-09-17T12:26:23.637Z,98841.75
2022-09-17T12:29:29.092Z,98806.16
2022-09-17T12:32:50.353Z,98804.75
2022-09-17T12:36:06.201Z,98812.09
2022-09-17T12:39:21.545Z,98821.66
2022-09-17T12:46:01.435Z,98811.25
2022-09-17T12:49:11.450Z,98804.00
2022-09-17T12:52:18.529Z,98784.78
2022-09-17T12:55:31.825Z,98759.37
2022-09-17T12:58:41.915Z,98766.03
2022-09-17T13:02:13.173Z,98769.78
2022-09-17T13:10:02.014Z,98787.66
2022-09-17T13:13:17.841Z,98803.75
2022-09-17T13:16:46.899Z,98809.38
2022-09-17T13:20:29.462Z,98806.94
2022-09-17T13:23:49.592Z,98809.78
2022-09-17T13:27:06.887Z,98796.72
2022-09-17T13:42:35.483Z,98815.28
2022-09-17T13:49:35.248Z,98794.31
2022-09-17T13:52:58.019Z,98780.56
2022-09-17T13:56:06.947Z,98773.16
2022-09-17T13:59:36.310Z,98773.25
2022-09-17T14:02:39.402Z,98780.44
2022-09-17T14:05:52.200Z,98785.50
2022-09-17T14:09:06.184Z,98782.41
2022-09-17T14:12:39.457Z,98764.78
2022-09-17T14:16:13.230Z,98769.03
2022-09-17T14:19:17.268Z,98784.19
2022-09-17T14:22:29.625Z,98777.88
2022-09-17T14:25:56.963Z,98768.28
2022-09-17T14:29:22.874Z,98776.66
2022-09-17T14:36:29.006Z,98774.56
2022-09-17T14:40:15.622Z,98803.16
2022-09-17T14:43:31.590Z,98797.41
2022-09-17T14:46:49.493Z,98803.19
2022-09-17T14:49:52.932Z,98803.25
2022-09-17T14:53:00.421Z,98823.69
2022-09-17T14:56:03.175Z,98809.75
2022-09-17T14:59:10.237Z,98822.50
2022-09-17T15:02:25.291Z,98802.19
2022-09-17T15:05:39.198Z,98806.41
2022-09-17T15:09:08.344Z,98805.81
2022-09-17T15:12:12.336Z,98800.38
2022-09-17T15:15:20.296Z,98793.12
2022-09-17T15:18:23.236Z,98787.38
2022-09-17T15:25:28.314Z,98785.09
2022-09-17T15:28:43.862Z,98796.22
2022-09-17T15:31:59.670Z,98809.41
2022-09-17T15:42:35.131Z,98779.50
2022-09-17T15:45:47.248Z,98760.47
2022-09-17T15:49:07.489Z,98757.44
2022-09-17T15:52:48.020Z,98749.41
2022-09-17T15:56:22.502Z,98738.84
2022-09-17T15:59:27.812Z,98739.56
2022-09-17T16:02:32.260Z,98717.56
2022-09-17T16:05:47.150Z,98713.50
2022-09-17T16:09:23.806Z,98710.19
2022-09-17T16:12:34.147Z,98712.69
2022-09-17T16:15:37.615Z,98718.59
2022-09-17T16:18:57.149Z,98716.59
2022-09-17T16:22:07.983Z,98713.50
2022-09-17T16:25:12.294Z,98719.72
2022-09-17T16:28:23.004Z,98717.47
2022-09-17T16:31:28.395Z,98720.84
2022-09-17T16:34:31.196Z,98731.13
2022-09-17T16:37:37.451Z,98733.75
2022-09-17T16:40:43.812Z,98721.66
2022-09-17T16:43:47.411Z,98712.50
2022-09-17T16:46:51.226Z,98701.41
2022-09-17T16:50:02.304Z,98692.72
2022-09-17T16:53:05.606Z,98694.31
2022-09-17T16:56:15.077Z,98682.37
2022-09-17T16:59:17.844Z,98681.59
2022-09-17T17:02:21.003Z,98697.09
2022-09-17T17:05:52.501Z,98707.88
2022-09-17T17:09:23.532Z,98720.41
2022-09-17T17:12:29.850Z,98717.25
2022-09-17T17:15:32.906Z,98707.63
2022-09-17T17:18:35.950Z,98695.19
2022-09-17T17:22:06.633Z,98703.81
2022-09-17T17:25:10.720Z,98730.00
2022-09-17T17:28:16.161Z,98712.09
2022-09-17T17:31:19.207Z,98704.19
2022-09-17T17:34:22.136Z,98698.97
2022-09-17T17:37:26.711Z,98696.47
2022-09-17T17:40:29.556Z,98695.50
2022-09-17T17:43:32.749Z,98698.66
2022-09-17T17:46:37.304Z,98701.00
2022-09-17T17:49:45.169Z,98699.03
2022-09-17T17:52:48.857Z,98719.50
2022-09-17T17:56:00.357Z,98725.34
2022-09-17T17:59:03.284Z,98733.03
2022-09-17T18:02:06.867Z,98750.25
2022-09-17T18:05:11.799Z,98754.16
2022-09-17T18:08:16.165Z,98758.03
2022-09-17T18:11:26.514Z,98757.78
2022-09-17T18:14:29.214Z,98761.50
2022-09-17T18:17:35.868Z,98763.19
2022-09-17T18:20:38.743Z,98768.56
2022-09-17T18:23:42.103Z,98805.19
2022-09-17T18:26:47.412Z,98803.50
2022-09-17T18:29:53.299Z,98791.50
2022-09-17T18:32:56.339Z,98784.47
2022-09-17T18:36:03.366Z,98780.91
2022-09-17T18:39:33.144Z,98789.63
2022-09-17T18:42:29.985Z,98784.25
2022-09-17T18:45:33.385Z,98776.78
2022-09-17T18:48:42.339Z,98780.44
2022-09-17T18:51:45.072Z,98787.53
2022-09-17T18:54:48.343Z,98796.09
2022-09-17T18:57:51.701Z,98791.78
2022-09-17T19:00:54.909Z,98797.22
2022-09-17T19:04:00.924Z,98791.69
2022-09-17T19:07:04.039Z,98799.81
2022-09-17T19:10:06.698Z,98790.22
2022-09-17T19:13:09.825Z,98792.13
2022-09-17T19:16:13.358Z,98790.94
2022-09-17T19:19:16.705Z,98801.03
2022-09-17T19:22:19.340Z,98798.81
2022-09-17T19:25:23.291Z,98786.88
2022-09-17T19:28:29.077Z,98795.28
2022-09-17T19:31:35.712Z,98795.34
2022-09-17T19:34:38.669Z,98790.66
2022-09-17T19:37:42.363Z,98801.53
2022-09-17T19:40:45.362Z,98797.84
2022-09-17T19:43:50.500Z,98799.63
2022-09-17T19:46:53.852Z,98801.59
2022-09-17T19:49:57.498Z,98818.34
2022-09-17T19:53:00.312Z,98814.06
2022-09-17T19:56:03.640Z,98818.66
2022-09-17T19:59:16.031Z,98809.63
2022-09-17T20:02:19.350Z,98809.69
2022-09-17T20:05:27.748Z,98815.94
2022-09-17T20:08:30.558Z,98812.47
2022-09-17T20:11:34.323Z,98810.13
2022-09-17T20:14:43.390Z,98816.53
2022-09-17T20:17:48.196Z,98819.94
2022-09-17T20:20:50.759Z,98816.22
2022-09-17T20:23:54.457Z,98822.03
2022-09-17T20:26:58.199Z,98819.66
2022-09-17T20:30:01.018Z,98827.87
2022-09-17T20:33:04.730Z,98822.50
2022-09-17T20:36:10.348Z,98836.47
2022-09-17T20:39:18.174Z,98833.00
2022-09-17T20:42:22.736Z,98836.75
2022-09-17T20:45:25.255Z,98828.22
2022-09-17T20:48:29.741Z,98834.53
2022-09-17T20:51:34.042Z,98836.44
2022-09-17T20:54:36.942Z,98846.62
2022-09-17T20:57:39.971Z,98838.88
2022-09-17T21:04:05.727Z,98859.13
2022-09-17T21:07:08.741Z,98849.09
2022-09-17T21:10:13.586Z,98847.16
2022-09-17T21:13:19.409Z,98844.44
2022-09-17T21:16:22.319Z,98852.59
2022-09-17T21:19:25.555Z,98856.56
2022-09-17T21:22:28.091Z,98862.69
2022-09-17T21:25:34.085Z,98847.16
2022-09-17T21:28:40.331Z,98860.09
2022-09-17T21:31:45.746Z,98858.91
2022-09-17T21:34:48.336Z,98878.25
2022-09-17T21:37:55.560Z,98859.75
2022-09-17T21:40:58.601Z,98863.25
2022-09-17T21:44:01.583Z,98862.09
2022-09-17T21:47:05.416Z,98867.97
2022-09-17T21:50:10.058Z,98876.94
2022-09-17T21:53:12.615Z,98865.81
2022-09-17T21:56:28.323Z,98877.12
2022-09-17T21:59:30.968Z,98885.34
2022-09-17T22:02:35.848Z,98888.13
2022-09-17T22:05:39.798Z,98879.22
2022-09-17T22:08:44.389Z,98892.44
2022-09-17T22:11:48.765Z,98885.06
2022-09-17T22:14:59.153Z,98895.59
2022-09-17T22:18:10.836Z,98896.41
2022-09-17T22:21:21.275Z,98886.31
2022-09-17T22:24:25.563Z,98888.25
2022-09-17T22:27:29.576Z,98900.66
2022-09-17T22:30:35.564Z,98904.16
2022-09-17T22:33:42.115Z,98890.66
2022-09-17T22:36:45.208Z,98892.19
2022-09-17T22:39:47.813Z,98893.34
2022-09-17T22:42:50.841Z,98887.97
2022-09-17T22:45:53.870Z,98903.03
2022-09-17T22:48:56.961Z,98913.50
2022-09-17T22:52:00.711Z,98915.81
2022-09-17T22:55:04.515Z,98909.22
2022-09-17T22:58:07.116Z,98911.97
2022-09-17T23:01:15.705Z,98906.53
2022-09-17T23:04:18.298Z,98909.59
2022-09-17T23:07:21.210Z,98916.59
2022-09-17T23:10:23.804Z,98910.03
2022-09-17T23:13:27.483Z,98914.66
2022-09-17T23:16:59.717Z,98918.16
2022-09-17T23:20:03.847Z,98922.41
2022-09-17T23:23:06.459Z,98924.69
2022-09-17T23:26:10.493Z,98931.28
2022-09-17T23:29:13.284Z,98928.59
2022-09-17T23:32:16.125Z,98926.25
2022-09-17T23:35:18.695Z,98931.28
2022-09-17T23:38:21.700Z,98928.97
2022-09-17T23:41:24.512Z,98939.41
2022-09-17T23:44:27.838Z,98940.59
2022-09-17T23:47:30.386Z,98939.44
2022-09-17T23:50:36.440Z,98939.03
2022-09-17T23:53:41.358Z,98955.31
2022-09-17T23:56:45.328Z,98944.84
2022-09-17T23:59:47.904Z,98949.50
